Time;durP1;ratioP1;P1;durP2;ratioP2;P2;SDS_P1;SDS_P2;PMS_P1;PMS_P2;Temp;Humidity;BMP_temperature;BMP_pressure;BME280_temperature;BME280_humidity;BME280_pressure;Samples;Min_cycle;Max_cycle;Signal;HPM_P1;HPM_P2
2022/02/14 00:00:27;;;;;;;6.00;2.63;;;;;;;;;;5050581;28;20201;-70
2022/02/14 00:02:52;;;;;;;10.17;2.53;;;;;;;;;;5050548;28;20096;-67
2022/02/14 00:05:17;;;;;;;4.55;2.00;;;;;;;;;;5043743;28;20623;-70
2022/02/14 00:07:43;;;;;;;11.07;2.83;;;;;;;;;;5051766;28;20048;-70
2022/02/14 00:10:08;;;;;;;8.45;2.38;;;;;;;;;;5053101;28;20048;-70
2022/02/14 00:12:34;;;;;;;3.58;1.48;;;;;;;;;;5051695;28;20504;-71
2022/02/14 00:14:59;;;;;;;12.80;2.42;;;;;;;;;;5052050;28;20441;-71
2022/02/14 00:17:25;;;;;;;4.57;1.25;;;;;;;;;;5052603;28;20096;-70
2022/02/14 00:19:51;;;;;;;4.95;1.70;;;;;;;;;;5052381;28;20100;-70
2022/02/14 00:22:18;;;;;;;6.70;2.30;;;;;;;;;;5052566;28;20029;-70
2022/02/14 00:24:43;;;;;;;6.13;2.13;;;;;;;;;;5052730;28;20120;-70
2022/02/14 00:27:09;;;;;;;8.23;2.55;;;;;;;;;;5051067;28;20094;-70
2022/02/14 00:29:34;;;;;;;11.25;2.05;;;;;;;;;;5051933;28;20036;-70
2022/02/14 00:31:59;;;;;;;6.43;2.27;;;;;;;;;;5051537;28;20029;-70
2022/02/14 00:34:24;;;;;;;6.22;2.05;;;;;;;;;;5051213;28;20665;-70
2022/02/14 00:36:49;;;;;;;6.47;2.47;;;;;;;;;;5051712;28;20529;-70
2022/02/14 00:39:14;;;;;;;8.10;2.38;;;;;;;;;;5049894;28;20135;-67
2022/02/14 00:41:40;;;;;;;13.80;2.00;;;;;;;;;;5051922;28;20029;-68
2022/02/14 00:44:05;;;;;;;8.13;2.17;;;;;;;;;;5033210;28;20107;-71
2022/02/14 00:46:30;;;;;;;11.40;2.40;;;;;;;;;;5034486;28;20401;-70
2022/02/14 00:48:56;;;;;;;16.40;2.15;;;;;;;;;;5052861;28;20051;-67
2022/02/14 00:51:21;;;;;;;14.25;2.13;;;;;;;;;;5056015;28;20064;-70
2022/02/14 00:53:46;;;;;;;5.70;1.40;;;;;;;;;;5055813;28;20420;-67
2022/02/14 00:56:11;;;;;;;2.77;1.67;;;;;;;;;;5052745;28;20286;-72
2022/02/14 00:58:36;;;;;;;5.47;2.45;;;;;;;;;;5056259;28;20372;-71
2022/02/14 01:01:02;;;;;;;1.42;1.00;;;;;;;;;;5055553;28;20451;-68
2022/02/14 01:03:27;;;;;;;7.28;1.42;;;;;;;;;;5056166;28;20028;-70
2022/02/14 01:05:52;;;;;;;4.82;2.47;;;;;;;;;;5037301;28;20107;-70
2022/02/14 01:08:17;;;;;;;1.58;1.23;;;;;;;;;;5053936;28;20393;-71
2022/02/14 01:10:43;;;;;;;33.47;4.17;;;;;;;;;;5056208;28;20111;-70
2022/02/14 01:13:08;;;;;;;9.27;3.42;;;;;;;;;;5053097;28;20271;-70
2022/02/14 01:15:33;;;;;;;2.87;1.40;;;;;;;;;;5055259;28;20025;-70
2022/02/14 01:17:58;;;;;;;2.63;1.27;;;;;;;;;;5055699;28;20270;-70
2022/02/14 01:20:23;;;;;;;5.05;1.85;;;;;;;;;;5054958;28;20472;-68
2022/02/14 01:22:49;;;;;;;4.20;1.60;;;;;;;;;;5054304;28;20043;-68
2022/02/14 01:25:14;;;;;;;8.35;2.30;;;;;;;;;;5056138;28;20056;-69
2022/02/14 01:27:39;;;;;;;4.88;2.22;;;;;;;;;;5037247;28;20384;-67
2022/02/14 01:30:05;;;;;;;10.73;1.98;;;;;;;;;;5053811;28;20053;-67
2022/02/14 01:32:31;;;;;;;7.80;1.88;;;;;;;;;;5052205;28;20067;-71
2022/02/14 01:34:56;;;;;;;19.75;2.75;;;;;;;;;;5053793;28;20142;-70
2022/02/14 01:37:22;;;;;;;3.70;1.48;;;;;;;;;;5055630;28;20021;-71
2022/02/14 01:39:48;;;;;;;3.08;1.60;;;;;;;;;;5056057;28;20096;-68
2022/02/14 01:42:15;;;;;;;6.43;2.33;;;;;;;;;;5055128;28;20013;-68
2022/02/14 01:44:41;;;;;;;4.32;2.03;;;;;;;;;;5038348;28;20543;-70
2022/02/14 01:47:17;;;;;;;6.53;1.25;;;;;;;;;;5053328;28;20029;-71
2022/02/14 01:49:43;;;;;;;7.15;2.15;;;;;;;;;;5052565;28;20020;-71
2022/02/14 01:52:09;;;;;;;3.33;1.58;;;;;;;;;;5052482;28;20082;-72
2022/02/14 01:54:35;;;;;;;3.45;1.80;;;;;;;;;;5052437;28;20480;-72
2022/02/14 01:57:00;;;;;;;3.20;1.58;;;;;;;;;;5051714;28;20067;-71
2022/02/14 01:59:26;;;;;;;4.18;1.13;;;;;;;;;;5052488;28;20461;-71
2022/02/14 02:01:51;;;;;;;3.28;1.67;;;;;;;;;;5052410;28;20049;-70
2022/02/14 02:04:16;;;;;;;7.13;2.53;;;;;;;;;;5052329;28;20037;-70
2022/02/14 02:06:42;;;;;;;5.78;2.58;;;;;;;;;;5051604;28;20040;-70
2022/02/14 02:09:07;;;;;;;11.65;1.77;;;;;;;;;;5052508;28;20048;-70
2022/02/14 02:14:22;;;;;;;6.55;1.55;;;;;;;;;;5050484;28;20063;-70
2022/02/14 02:16:48;;;;;;;4.88;2.58;;;;;;;;;;5051579;28;20025;-70
2022/02/14 02:19:14;;;;;;;11.18;2.83;;;;;;;;;;5052125;28;20390;-69
2022/02/14 02:21:42;;;;;;;8.10;2.25;;;;;;;;;;5046993;28;20104;-70
2022/02/14 02:24:09;;;;;;;5.07;2.20;;;;;;;;;;5045170;28;20025;-70
2022/02/14 02:26:34;;;;;;;9.27;2.97;;;;;;;;;;5051105;28;20078;-69
2022/02/14 02:28:59;;;;;;;6.75;2.55;;;;;;;;;;5051445;28;20661;-69
2022/02/14 02:31:25;;;;;;;6.75;2.35;;;;;;;;;;5051570;28;20096;-69
2022/02/14 02:33:50;;;;;;;13.07;2.75;;;;;;;;;;5051207;28;20033;-69
2022/02/14 02:36:15;;;;;;;4.55;2.42;;;;;;;;;;5050307;28;20057;-69
2022/02/14 02:38:40;;;;;;;8.30;1.97;;;;;;;;;;5051544;28;20025;-69
2022/02/14 02:41:05;;;;;;;4.38;1.73;;;;;;;;;;5050285;28;20787;-69
2022/02/14 02:43:31;;;;;;;5.47;2.20;;;;;;;;;;5051436;28;20046;-69
2022/02/14 02:45:56;;;;;;;9.53;2.87;;;;;;;;;;5051189;28;20040;-69
2022/02/14 02:48:21;;;;;;;8.75;2.60;;;;;;;;;;5050723;28;20264;-69
2022/02/14 02:51:20;;;;;;;3.58;1.67;;;;;;;;;;5051054;28;20029;-69
2022/02/14 02:53:38;;;;;;;7.47;1.95;;;;;;;;;;5047390;28;20540;-69
2022/02/14 02:56:04;;;;;;;11.80;2.70;;;;;;;;;;5050238;28;20029;-69
2022/02/14 02:58:29;;;;;;;7.20;1.67;;;;;;;;;;5050810;28;20309;-69
2022/02/14 03:00:54;;;;;;;5.45;1.63;;;;;;;;;;5051479;28;20063;-69
2022/02/14 03:03:19;;;;;;;5.95;2.10;;;;;;;;;;5050700;28;20025;-69
2022/02/14 03:05:45;;;;;;;5.63;2.30;;;;;;;;;;5051024;28;20488;-69
2022/02/14 03:08:10;;;;;;;4.13;2.17;;;;;;;;;;5049846;28;20259;-69
2022/02/14 03:10:35;;;;;;;9.30;1.88;;;;;;;;;;5050550;28;20017;-69
2022/02/14 03:13:00;;;;;;;4.13;1.58;;;;;;;;;;5049915;28;20025;-69
2022/02/14 03:15:26;;;;;;;4.50;2.30;;;;;;;;;;5050468;28;20045;-69
2022/02/14 03:17:51;;;;;;;10.60;2.90;;;;;;;;;;5050932;28;20032;-69
2022/02/14 03:20:17;;;;;;;6.53;2.25;;;;;;;;;;5050215;28;20108;-69
2022/02/14 03:22:42;;;;;;;7.80;1.95;;;;;;;;;;5050446;28;20105;-69
2022/02/14 03:25:07;;;;;;;7.85;1.42;;;;;;;;;;5050156;28;20388;-69
2022/02/14 03:27:33;;;;;;;2.90;1.65;;;;;;;;;;5050509;28;20029;-69
2022/02/14 03:29:58;;;;;;;5.53;1.40;;;;;;;;;;5050612;28;20031;-69
2022/02/14 03:32:23;;;;;;;7.22;1.52;;;;;;;;;;5050104;28;20271;-71
2022/02/14 03:34:48;;;;;;;12.65;2.88;;;;;;;;;;5050342;28;21902;-71
2022/02/14 03:37:13;;;;;;;3.65;1.60;;;;;;;;;;5050148;28;20050;-70
2022/02/14 03:39:39;;;;;;;4.87;1.80;;;;;;;;;;5050222;28;20358;-69
2022/02/14 03:42:04;;;;;;;4.67;2.50;;;;;;;;;;5050689;28;20272;-69
2022/02/14 03:44:29;;;;;;;3.65;1.02;;;;;;;;;;5049632;28;20343;-69
2022/02/14 03:46:54;;;;;;;5.50;1.43;;;;;;;;;;5048424;28;20106;-69
2022/02/14 03:49:20;;;;;;;5.65;2.00;;;;;;;;;;5047976;28;20283;-69
2022/02/14 03:51:45;;;;;;;8.10;2.22;;;;;;;;;;5049624;28;20032;-69
2022/02/14 03:54:10;;;;;;;8.95;1.85;;;;;;;;;;5049821;28;20441;-69
2022/02/14 03:56:36;;;;;;;3.05;0.90;;;;;;;;;;5050073;28;20487;-69
2022/02/14 03:59:01;;;;;;;4.57;1.98;;;;;;;;;;5049777;28;20362;-69
2022/02/14 04:01:26;;;;;;;3.88;1.48;;;;;;;;;;5050148;28;20475;-69
2022/02/14 04:03:51;;;;;;;3.40;1.23;;;;;;;;;;5050368;28;20024;-69
2022/02/14 04:06:17;;;;;;;1.63;0.95;;;;;;;;;;5049159;28;20039;-69
2022/02/14 04:08:42;;;;;;;8.70;1.95;;;;;;;;;;5048758;28;20048;-69
2022/02/14 04:11:07;;;;;;;3.80;1.58;;;;;;;;;;5050828;28;20384;-69
2022/02/14 04:13:32;;;;;;;8.37;1.50;;;;;;;;;;5049847;28;20493;-69
2022/02/14 04:15:57;;;;;;;9.85;1.52;;;;;;;;;;5049235;28;20358;-69
2022/02/14 04:18:23;;;;;;;2.50;1.10;;;;;;;;;;5049271;28;20052;-69
2022/02/14 04:20:48;;;;;;;3.25;1.10;;;;;;;;;;5049874;28;20496;-69
2022/02/14 04:23:13;;;;;;;3.83;1.67;;;;;;;;;;5048889;28;20025;-69
2022/02/14 04:25:38;;;;;;;7.47;2.60;;;;;;;;;;5048905;28;20099;-69
2022/02/14 04:28:03;;;;;;;11.77;2.47;;;;;;;;;;5050117;28;20029;-69
2022/02/14 04:30:29;;;;;;;2.45;1.13;;;;;;;;;;5049512;28;20032;-70
2022/02/14 04:32:56;;;;;;;1.45;0.50;;;;;;;;;;5049080;28;20373;-69
2022/02/14 04:35:22;;;;;;;4.07;1.38;;;;;;;;;;5049343;28;20036;-69
2022/02/14 04:37:47;;;;;;;1.83;0.75;;;;;;;;;;5049717;28;20017;-69
2022/02/14 04:40:12;;;;;;;12.18;2.58;;;;;;;;;;5049701;28;20032;-69
2022/02/14 04:42:37;;;;;;;6.28;1.85;;;;;;;;;;5049581;28;20029;-71
2022/02/14 04:45:02;;;;;;;6.80;1.70;;;;;;;;;;5049220;28;20021;-72
2022/02/14 04:47:28;;;;;;;4.20;1.17;;;;;;;;;;5049464;28;20271;-71
2022/02/14 04:49:53;;;;;;;7.27;1.87;;;;;;;;;;5048293;28;20114;-71
2022/02/14 04:52:18;;;;;;;5.73;1.13;;;;;;;;;;5049430;28;20609;-71
2022/02/14 04:54:44;;;;;;;9.50;2.05;;;;;;;;;;5049524;28;20279;-71
2022/02/14 04:57:09;;;;;;;4.22;1.35;;;;;;;;;;5048492;28;20021;-71
2022/02/14 04:59:34;;;;;;;4.93;1.48;;;;;;;;;;5048899;28;20552;-71
2022/02/14 05:01:59;;;;;;;4.82;1.67;;;;;;;;;;5049281;28;20020;-71
2022/02/14 05:04:25;;;;;;;2.90;1.17;;;;;;;;;;5048518;28;20389;-71
2022/02/14 05:06:50;;;;;;;7.45;1.48;;;;;;;;;;5047271;28;20275;-69
2022/02/14 05:09:15;;;;;;;5.55;1.75;;;;;;;;;;5046870;28;20100;-69
2022/02/14 05:11:40;;;;;;;6.72;1.40;;;;;;;;;;5049615;28;20463;-69
2022/02/14 05:14:06;;;;;;;3.73;1.30;;;;;;;;;;5048981;28;20040;-69
2022/02/14 05:16:31;;;;;;;3.38;1.23;;;;;;;;;;5048836;28;20366;-69
2022/02/14 05:18:56;;;;;;;4.63;1.20;;;;;;;;;;5049020;28;20143;-69
2022/02/14 05:21:21;;;;;;;9.50;1.50;;;;;;;;;;5048926;28;20072;-71
2022/02/14 05:23:46;;;;;;;1.88;1.20;;;;;;;;;;5048857;28;20290;-71
2022/02/14 05:26:12;;;;;;;3.60;1.37;;;;;;;;;;5048515;28;20025;-71
2022/02/14 05:28:37;;;;;;;4.38;1.15;;;;;;;;;;5049118;28;20256;-71
2022/02/14 05:31:02;;;;;;;9.23;2.08;;;;;;;;;;5030771;28;20029;-71
2022/02/14 05:33:28;;;;;;;1.73;0.77;;;;;;;;;;5048971;28;20032;-71
2022/02/14 05:35:53;;;;;;;2.55;1.58;;;;;;;;;;5050725;28;20029;-71
2022/02/14 05:38:18;;;;;;;8.10;1.33;;;;;;;;;;5052233;28;20108;-71
2022/02/14 05:40:43;;;;;;;7.20;1.30;;;;;;;;;;5051662;28;20616;-71
2022/02/14 05:43:09;;;;;;;4.35;1.00;;;;;;;;;;5053044;28;20021;-70
2022/02/14 05:45:34;;;;;;;5.80;2.00;;;;;;;;;;5052607;28;20032;-70
2022/02/14 05:47:59;;;;;;;7.45;1.50;;;;;;;;;;5053188;28;20501;-70
2022/02/14 05:50:24;;;;;;;4.93;1.27;;;;;;;;;;5052715;28;20020;-69
2022/02/14 05:52:49;;;;;;;4.10;1.60;;;;;;;;;;5052586;28;20410;-72
2022/02/14 05:55:15;;;;;;;2.47;0.83;;;;;;;;;;5051994;28;20560;-69
2022/02/14 05:57:40;;;;;;;6.28;1.52;;;;;;;;;;5052661;28;20267;-70
2022/02/14 06:00:06;;;;;;;6.88;1.42;;;;;;;;;;5052300;28;20025;-69
2022/02/14 06:02:31;;;;;;;4.32;1.38;;;;;;;;;;5052485;28;20032;-71
2022/02/14 06:04:56;;;;;;;2.03;1.20;;;;;;;;;;5049488;28;20024;-71
2022/02/14 06:07:22;;;;;;;1.60;1.02;;;;;;;;;;5049441;28;20295;-71
2022/02/14 06:09:47;;;;;;;5.70;1.73;;;;;;;;;;5046556;28;20024;-72
2022/02/14 06:12:12;;;;;;;19.52;3.00;;;;;;;;;;5050503;28;20036;-70
2022/02/14 06:14:37;;;;;;;2.78;1.20;;;;;;;;;;5048929;28;20078;-71
2022/02/14 06:17:03;;;;;;;5.40;2.22;;;;;;;;;;5049880;28;20029;-70
2022/02/14 06:19:28;;;;;;;2.10;0.75;;;;;;;;;;5049494;28;20517;-70
2022/02/14 06:21:53;;;;;;;7.72;1.80;;;;;;;;;;5049666;28;20040;-70
2022/02/14 06:24:18;;;;;;;6.73;1.90;;;;;;;;;;5047225;28;20029;-70
2022/02/14 06:26:44;;;;;;;2.90;1.38;;;;;;;;;;5049783;28;20672;-70
2022/02/14 06:29:09;;;;;;;8.82;1.35;;;;;;;;;;5049855;28;20105;-70
2022/02/14 06:31:34;;;;;;;5.68;2.40;;;;;;;;;;5049364;28;20029;-70
2022/02/14 06:34:00;;;;;;;3.88;1.13;;;;;;;;;;5049921;28;20112;-70
2022/02/14 06:36:28;;;;;;;4.25;1.90;;;;;;;;;;5048687;28;20054;-70
2022/02/14 06:38:54;;;;;;;2.55;1.40;;;;;;;;;;5049591;28;20524;-70
2022/02/14 06:41:19;;;;;;;2.30;1.02;;;;;;;;;;5049087;28;20049;-70
2022/02/14 06:43:45;;;;;;;5.78;1.42;;;;;;;;;;5048840;28;20024;-70
2022/02/14 06:46:10;;;;;;;6.07;1.53;;;;;;;;;;5048054;28;20045;-70
2022/02/14 06:48:35;;;;;;;5.33;1.13;;;;;;;;;;5048210;28;20271;-70
2022/02/14 06:51:00;;;;;;;8.82;1.20;;;;;;;;;;5049026;28;20279;-70
2022/02/14 06:53:26;;;;;;;5.28;0.90;;;;;;;;;;5046016;28;20471;-70
2022/02/14 06:55:52;;;;;;;3.38;1.15;;;;;;;;;;5047025;28;20363;-70
2022/02/14 06:58:17;;;;;;;4.85;1.02;;;;;;;;;;5048043;28;20025;-70
2022/02/14 07:00:42;;;;;;;2.13;0.75;;;;;;;;;;5048831;28;20019;-70
2022/02/14 07:03:08;;;;;;;2.73;1.17;;;;;;;;;;5045331;28;20028;-70
2022/02/14 07:05:33;;;;;;;2.45;1.20;;;;;;;;;;5049120;28;20264;-70
2022/02/14 07:07:59;;;;;;;8.00;1.70;;;;;;;;;;5050362;28;20024;-70
2022/02/14 07:10:24;;;;;;;2.13;1.05;;;;;;;;;;5050948;28;20111;-70
2022/02/14 07:12:49;;;;;;;2.47;1.08;;;;;;;;;;5050639;28;20107;-70
2022/02/14 07:15:15;;;;;;;5.40;1.23;;;;;;;;;;5050424;28;20396;-70
2022/02/14 07:17:45;;;;;;;4.03;1.50;;;;;;;;;;5050191;28;20279;-70
2022/02/14 07:20:10;;;;;;;3.30;1.08;;;;;;;;;;5050741;28;20099;-70
2022/02/14 07:22:36;;;;;;;2.10;1.02;;;;;;;;;;5050309;28;20123;-70
2022/02/14 07:25:01;;;;;;;2.28;0.70;;;;;;;;;;5050501;28;20021;-70
2022/02/14 07:27:26;;;;;;;2.75;0.85;;;;;;;;;;5048528;28;20032;-70
2022/02/14 07:29:51;;;;;;;3.63;1.50;;;;;;;;;;5049904;28;20461;-70
2022/02/14 07:32:18;;;;;;;1.70;0.70;;;;;;;;;;5049898;28;20282;-70
2022/02/14 07:34:44;;;;;;;1.35;0.70;;;;;;;;;;5048723;28;20295;-70
2022/02/14 07:37:09;;;;;;;5.67;1.60;;;;;;;;;;5049338;28;20019;-70
2022/02/14 07:39:34;;;;;;;3.72;1.13;;;;;;;;;;5049456;28;20597;-70
2022/02/14 07:42:00;;;;;;;3.60;1.35;;;;;;;;;;5049808;28;20051;-70
2022/02/14 07:44:25;;;;;;;2.00;0.55;;;;;;;;;;5049699;28;20029;-70
2022/02/14 07:46:51;;;;;;;2.95;1.27;;;;;;;;;;5050325;28;20040;-70
2022/02/14 07:49:20;;;;;;;2.35;1.13;;;;;;;;;;5049965;28;20032;-70
2022/02/14 07:51:46;;;;;;;1.95;1.10;;;;;;;;;;5049958;28;20546;-70
2022/02/14 07:54:11;;;;;;;3.83;1.00;;;;;;;;;;5049484;28;20046;-71
2022/02/14 07:56:36;;;;;;;2.72;0.90;;;;;;;;;;5045131;28;20025;-70
2022/02/14 07:59:04;;;;;;;3.70;0.88;;;;;;;;;;5043268;28;20070;-70
2022/02/14 08:01:30;;;;;;;6.88;1.45;;;;;;;;;;5049447;28;20427;-70
2022/02/14 08:03:55;;;;;;;3.53;1.77;;;;;;;;;;5049672;28;20017;-70
2022/02/14 08:06:20;;;;;;;1.55;0.77;;;;;;;;;;5049281;28;20064;-70
2022/02/14 08:08:45;;;;;;;7.32;1.83;;;;;;;;;;5049990;28;20098;-70
2022/02/14 08:11:11;;;;;;;1.70;0.83;;;;;;;;;;5049258;28;20032;-70
2022/02/14 08:13:36;;;;;;;3.63;1.10;;;;;;;;;;5047601;28;20362;-70
2022/02/14 08:16:01;;;;;;;1.55;0.85;;;;;;;;;;5047879;28;20651;-70
2022/02/14 08:18:26;;;;;;;4.20;1.30;;;;;;;;;;5050163;28;20628;-70
2022/02/14 08:20:51;;;;;;;2.42;1.00;;;;;;;;;;5049963;28;20013;-70
2022/02/14 08:23:17;;;;;;;9.30;1.97;;;;;;;;;;5049834;28;20070;-70
2022/02/14 08:25:42;;;;;;;7.47;2.33;;;;;;;;;;5048089;28;20290;-70
2022/02/14 08:28:07;;;;;;;3.97;1.65;;;;;;;;;;5049189;28;20282;-70
2022/02/14 08:30:32;;;;;;;1.30;1.20;;;;;;;;;;5046990;28;20033;-70
2022/02/14 08:32:58;;;;;;;6.57;1.55;;;;;;;;;;5049330;28;20036;-70
2022/02/14 08:35:23;;;;;;;1.85;0.63;;;;;;;;;;5049125;28;20025;-70
2022/02/14 08:37:51;;;;;;;4.97;1.60;;;;;;;;;;5049302;28;20021;-70
2022/02/14 08:40:16;;;;;;;7.38;1.88;;;;;;;;;;5049630;28;20021;-70
2022/02/14 08:42:42;;;;;;;6.65;1.63;;;;;;;;;;5048309;28;20492;-70
2022/02/14 08:45:07;;;;;;;4.30;1.13;;;;;;;;;;5048135;28;20044;-70
2022/02/14 08:47:32;;;;;;;4.22;1.40;;;;;;;;;;5048882;28;20036;-70
2022/02/14 08:49:59;;;;;;;6.97;1.03;;;;;;;;;;5049170;28;20477;-70
2022/02/14 08:52:27;;;;;;;1.20;0.60;;;;;;;;;;5049053;28;20271;-70
2022/02/14 08:54:52;;;;;;;4.32;1.42;;;;;;;;;;5048762;28;20099;-70
2022/02/14 08:57:17;;;;;;;3.88;1.20;;;;;;;;;;5048830;28;20096;-70
2022/02/14 08:59:42;;;;;;;15.63;1.70;;;;;;;;;;5049514;28;20036;-70
2022/02/14 09:02:08;;;;;;;3.17;0.77;;;;;;;;;;5049237;28;20263;-70
2022/02/14 09:04:33;;;;;;;2.20;0.95;;;;;;;;;;5049304;28;20338;-70
2022/02/14 09:06:58;;;;;;;3.78;1.33;;;;;;;;;;5048592;28;20039;-71
2022/02/14 09:09:23;;;;;;;4.18;1.48;;;;;;;;;;5049101;28;20017;-71
2022/02/14 09:11:48;;;;;;;2.63;0.97;;;;;;;;;;5053429;28;20532;-70
2022/02/14 09:14:14;;;;;;;2.38;1.05;;;;;;;;;;5053480;28;20350;-70
2022/02/14 09:16:39;;;;;;;5.18;0.90;;;;;;;;;;5051469;28;20048;-71
2022/02/14 09:19:04;;;;;;;3.67;1.45;;;;;;;;;;5053550;28;20028;-70
2022/02/14 09:21:29;;;;;;;1.30;0.60;;;;;;;;;;5052947;28;20040;-71
2022/02/14 09:23:55;;;;;;;3.00;1.30;;;;;;;;;;5052519;28;20020;-70
2022/02/14 09:26:20;;;;;;;6.47;0.90;;;;;;;;;;5051268;28;20033;-70
2022/02/14 09:28:45;;;;;;;1.42;1.00;;;;;;;;;;5052672;28;20025;-70
2022/02/14 09:31:11;;;;;;;3.58;1.27;;;;;;;;;;5052843;28;20029;-70
2022/02/14 09:33:36;;;;;;;3.30;1.10;;;;;;;;;;5052817;28;20527;-70
2022/02/14 09:36:01;;;;;;;2.97;0.82;;;;;;;;;;5051956;28;20283;-70
2022/02/14 09:38:27;;;;;;;2.13;1.20;;;;;;;;;;5052417;28;20082;-73
2022/02/14 09:40:52;;;;;;;5.13;1.40;;;;;;;;;;5052807;28;20461;-74
2022/02/14 09:43:17;;;;;;;3.08;0.90;;;;;;;;;;5052643;28;20478;-73
2022/02/14 09:45:43;;;;;;;2.63;0.90;;;;;;;;;;5052147;28;20366;-73
2022/02/14 09:48:10;;;;;;;2.33;0.70;;;;;;;;;;5052481;28;20264;-74
2022/02/14 09:50:36;;;;;;;6.93;1.98;;;;;;;;;;5051544;28;20059;-74
2022/02/14 09:53:03;;;;;;;3.75;1.17;;;;;;;;;;5052500;28;20057;-74
2022/02/14 09:55:28;;;;;;;0.50;0.43;;;;;;;;;;5051447;28;20021;-74
2022/02/14 09:57:53;;;;;;;7.60;1.30;;;;;;;;;;5052097;28;20365;-71
2022/02/14 10:00:19;;;;;;;2.92;1.02;;;;;;;;;;5051580;28;20271;-72
2022/02/14 10:02:44;;;;;;;2.53;0.43;;;;;;;;;;5051996;28;20502;-71
2022/02/14 10:05:13;;;;;;;4.43;1.05;;;;;;;;;;5051564;28;20036;-72
2022/02/14 10:07:38;;;;;;;2.88;0.55;;;;;;;;;;5049083;28;20021;-71
2022/02/14 10:10:11;;;;;;;1.90;0.70;;;;;;;;;;5051092;28;20104;-72
2022/02/14 10:12:41;;;;;;;1.77;0.50;;;;;;;;;;5051825;28;20759;-71
2022/02/14 10:15:06;;;;;;;0.60;0.35;;;;;;;;;;5051929;28;20029;-71
2022/02/14 10:17:38;;;;;;;7.13;0.80;;;;;;;;;;5052136;28;20496;-72
2022/02/14 10:20:04;;;;;;;4.50;0.60;;;;;;;;;;5052227;28;20116;-72
2022/02/14 10:22:29;;;;;;;1.23;0.77;;;;;;;;;;5051031;28;20351;-71
2022/02/14 10:24:55;;;;;;;1.10;0.60;;;;;;;;;;5050737;28;20377;-71
2022/02/14 10:27:33;;;;;;;1.85;0.57;;;;;;;;;;5051573;28;20021;-72
2022/02/14 10:30:08;;;;;;;3.65;0.50;;;;;;;;;;5051180;28;20020;-72
2022/02/14 10:32:34;;;;;;;12.98;2.50;;;;;;;;;;5051871;28;20452;-71
2022/02/14 10:35:00;;;;;;;2.13;0.60;;;;;;;;;;5051438;28;20116;-71
2022/02/14 10:37:39;;;;;;;2.28;0.90;;;;;;;;;;5050344;28;20482;-71
2022/02/14 10:40:05;;;;;;;1.35;0.73;;;;;;;;;;5052339;28;20025;-72
2022/02/14 10:42:33;;;;;;;3.97;0.47;;;;;;;;;;5050718;28;20075;-71
2022/02/14 10:45:09;;;;;;;0.77;0.40;;;;;;;;;;5051254;28;20039;-71
2022/02/14 10:47:37;;;;;;;5.20;0.40;;;;;;;;;;5051140;28;20021;-71
2022/02/14 10:50:10;;;;;;;1.58;0.10;;;;;;;;;;5050611;28;20032;-72
2022/02/14 10:52:39;;;;;;;1.20;0.38;;;;;;;;;;5041361;28;20108;-71
2022/02/14 10:55:06;;;;;;;1.40;0.30;;;;;;;;;;5049563;28;20123;-71
2022/02/14 10:57:35;;;;;;;1.80;0.40;;;;;;;;;;5050425;28;20025;-71
2022/02/14 11:00:00;;;;;;;0.43;0.30;;;;;;;;;;5051239;28;20111;-72
2022/02/14 11:02:26;;;;;;;1.42;0.40;;;;;;;;;;5051037;28;20028;-71
2022/02/14 11:04:51;;;;;;;1.13;0.50;;;;;;;;;;5050518;28;20017;-72
2022/02/14 11:07:18;;;;;;;0.80;0.50;;;;;;;;;;5050549;28;20028;-71
2022/02/14 11:09:45;;;;;;;2.92;0.63;;;;;;;;;;5050752;28;20738;-71
2022/02/14 11:12:11;;;;;;;1.38;1.08;;;;;;;;;;5051177;28;20089;-71
2022/02/14 11:14:37;;;;;;;2.08;0.50;;;;;;;;;;5050177;28;20115;-71
2022/02/14 11:17:03;;;;;;;1.33;0.77;;;;;;;;;;5032995;28;20354;-71
2022/02/14 11:19:29;;;;;;;1.13;0.68;;;;;;;;;;5049738;28;20154;-71
2022/02/14 11:21:54;;;;;;;2.13;0.82;;;;;;;;;;5050239;28;20519;-71
2022/02/14 11:24:26;;;;;;;0.80;0.57;;;;;;;;;;5050679;28;20492;-71
2022/02/14 11:26:57;;;;;;;1.42;0.63;;;;;;;;;;5050220;28;20426;-71
2022/02/14 11:29:33;;;;;;;2.42;0.90;;;;;;;;;;5050038;28;20031;-71
2022/02/14 11:32:18;;;;;;;1.80;0.82;;;;;;;;;;5050058;28;20021;-72
2022/02/14 11:34:50;;;;;;;4.25;0.85;;;;;;;;;;5049052;28;20032;-72
2022/02/14 11:37:15;;;;;;;4.50;0.98;;;;;;;;;;5048356;28;20021;-72
2022/02/14 11:39:41;;;;;;;1.98;0.80;;;;;;;;;;5049991;28;20028;-72
2022/02/14 11:42:07;;;;;;;2.65;0.90;;;;;;;;;;5050296;28;20056;-71
2022/02/14 11:44:33;;;;;;;0.60;0.38;;;;;;;;;;5049537;28;20032;-72
2022/02/14 11:46:59;;;;;;;11.20;0.90;;;;;;;;;;5049851;28;20037;-71
2022/02/14 11:49:41;;;;;;;1.65;0.70;;;;;;;;;;5050020;28;20017;-71
2022/02/14 11:52:08;;;;;;;0.75;0.50;;;;;;;;;;5044800;28;20036;-72
2022/02/14 11:54:41;;;;;;;4.50;0.77;;;;;;;;;;5208027;22;20037;-66
2022/02/14 11:57:27;;;;;;;0.82;0.52;;;;;;;;;;5056068;28;20025;-66
2022/02/14 12:00:13;;;;;;;2.05;0.57;;;;;;;;;;5049863;28;20020;-67
2022/02/14 12:02:38;;;;;;;1.98;0.50;;;;;;;;;;5050102;28;20100;-67
2022/02/14 12:05:04;;;;;;;4.22;0.65;;;;;;;;;;5047935;28;20158;-67
2022/02/14 12:07:38;;;;;;;2.30;0.60;;;;;;;;;;5049732;28;20025;-67
2022/02/14 12:10:18;;;;;;;1.23;0.32;;;;;;;;;;5050414;28;20020;-67
2022/02/14 12:12:46;;;;;;;2.80;0.70;;;;;;;;;;5049489;28;20523;-67
2022/02/14 12:20:57;;;;;;;2.67;0.70;;;;;;;;;;5049615;28;20043;-67
2022/02/14 12:23:36;;;;;;;2.15;0.60;;;;;;;;;;5052249;28;20025;-68
2022/02/14 12:26:02;;;;;;;2.40;0.60;;;;;;;;;;5049840;28;20028;-67
2022/02/14 12:28:27;;;;;;;4.03;0.60;;;;;;;;;;5043084;28;20074;-67
2022/02/14 12:30:53;;;;;;;4.93;0.52;;;;;;;;;;5050080;28;20031;-67
2022/02/14 12:33:19;;;;;;;1.38;0.55;;;;;;;;;;5049342;28;20036;-67
2022/02/14 12:35:49;;;;;;;1.70;0.63;;;;;;;;;;5064568;28;20013;-67
2022/02/14 12:38:15;;;;;;;3.75;0.88;;;;;;;;;;5051058;28;20024;-66
2022/02/14 12:40:43;;;;;;;1.67;0.57;;;;;;;;;;5049589;28;20151;-68
2022/02/14 12:43:08;;;;;;;3.47;0.88;;;;;;;;;;5032910;28;20101;-68
2022/02/14 12:45:34;;;;;;;2.92;1.00;;;;;;;;;;5052332;28;20016;-68
2022/02/14 12:48:00;;;;;;;8.40;0.80;;;;;;;;;;5055753;28;20292;-65
2022/02/14 12:50:34;;;;;;;2.97;0.70;;;;;;;;;;5052961;28;20496;-68
2022/02/14 12:53:07;;;;;;;2.05;0.85;;;;;;;;;;5052638;28;20558;-68
2022/02/14 12:55:32;;;;;;;0.60;0.30;;;;;;;;;;5067759;28;21613;-68
2022/02/14 12:57:57;;;;;;;0.77;0.30;;;;;;;;;;5045055;28;20133;-68
2022/02/14 13:00:38;;;;;;;2.90;0.50;;;;;;;;;;5052954;28;20255;-68
2022/02/14 13:03:05;;;;;;;4.63;0.63;;;;;;;;;;5053895;28;20025;-68
2022/02/14 13:05:31;;;;;;;3.13;0.90;;;;;;;;;;5053078;28;20384;-68
2022/02/14 13:07:57;;;;;;;5.22;0.95;;;;;;;;;;5051313;28;20025;-68
2022/02/14 13:10:23;;;;;;;1.13;0.63;;;;;;;;;;5052473;28;20032;-68
2022/02/14 13:13:08;;;;;;;4.97;0.50;;;;;;;;;;5051189;28;20033;-68
2022/02/14 13:15:40;;;;;;;6.70;0.70;;;;;;;;;;5052248;28;20037;-68
2022/02/14 13:18:07;;;;;;;2.72;0.65;;;;;;;;;;5052827;28;20529;-68
2022/02/14 13:20:32;;;;;;;0.55;0.30;;;;;;;;;;5052767;28;20028;-68
2022/02/14 13:22:58;;;;;;;3.97;0.73;;;;;;;;;;5052649;28;20280;-68
2022/02/14 13:25:27;;;;;;;4.65;0.70;;;;;;;;;;5052669;28;20028;-68
2022/02/14 13:27:53;;;;;;;8.65;1.10;;;;;;;;;;5052910;28;20640;-68
2022/02/14 13:30:20;;;;;;;2.80;0.80;;;;;;;;;;5052301;28;20016;-68
2022/02/14 13:32:46;;;;;;;5.78;0.75;;;;;;;;;;5051225;28;20060;-68
2022/02/14 13:35:14;;;;;;;3.92;0.60;;;;;;;;;;5052510;28;20017;-68
2022/02/14 13:37:40;;;;;;;3.35;0.60;;;;;;;;;;5052724;28;20031;-68
2022/02/14 13:40:18;;;;;;;8.32;0.70;;;;;;;;;;5052018;28;20032;-68
2022/02/14 13:42:46;;;;;;;3.72;0.70;;;;;;;;;;5052041;28;20465;-68
2022/02/14 13:45:11;;;;;;;3.38;0.65;;;;;;;;;;5056157;28;20068;-68
2022/02/14 13:47:36;;;;;;;8.15;1.00;;;;;;;;;;5052441;28;20052;-68
2022/02/14 13:50:19;;;;;;;9.63;0.90;;;;;;;;;;5052307;28;20029;-68
2022/02/14 13:52:44;;;;;;;4.30;0.47;;;;;;;;;;5052759;28;20623;-68
2022/02/14 13:55:11;;;;;;;4.10;1.03;;;;;;;;;;5052355;28;20334;-67
2022/02/14 13:57:40;;;;;;;9.35;1.60;;;;;;;;;;5066290;28;20267;-67
2022/02/14 14:00:06;;;;;;;6.15;0.80;;;;;;;;;;5058488;28;20388;-67
2022/02/14 14:02:32;;;;;;;4.50;1.75;;;;;;;;;;5052208;28;20021;-67
2022/02/14 14:05:17;;;;;;;0.80;0.32;;;;;;;;;;5051787;28;20045;-68
2022/02/14 14:07:43;;;;;;;3.85;0.82;;;;;;;;;;5051401;28;20032;-67
2022/02/14 14:10:08;;;;;;;7.30;1.08;;;;;;;;;;5051752;28;20025;-68
2022/02/14 14:12:33;;;;;;;1.90;0.80;;;;;;;;;;5051135;28;20064;-67
2022/02/14 14:14:59;;;;;;;7.63;0.93;;;;;;;;;;5051634;28;20033;-67
2022/02/14 14:17:25;;;;;;;10.88;0.80;;;;;;;;;;5051238;28;20266;-67
2022/02/14 14:19:53;;;;;;;2.38;0.68;;;;;;;;;;5067261;28;20021;-67
2022/02/14 14:22:19;;;;;;;7.03;1.50;;;;;;;;;;5067146;28;20017;-67
2022/02/14 14:24:45;;;;;;;3.63;0.95;;;;;;;;;;5050364;28;20028;-67
2022/02/14 14:27:11;;;;;;;0.60;0.38;;;;;;;;;;5052097;28;20481;-67
2022/02/14 14:29:38;;;;;;;4.95;0.60;;;;;;;;;;5051325;28;20103;-67
2022/02/14 14:32:03;;;;;;;2.70;0.80;;;;;;;;;;5051666;28;20366;-67
2022/02/14 14:34:29;;;;;;;3.80;1.20;;;;;;;;;;5052186;28;20025;-67
2022/02/14 14:36:54;;;;;;;3.85;0.93;;;;;;;;;;5051070;28;20781;-68
2022/02/14 14:39:19;;;;;;;3.08;1.00;;;;;;;;;;5050649;28;20017;-67
2022/02/14 14:41:44;;;;;;;7.47;0.88;;;;;;;;;;5051417;28;20501;-67
2022/02/14 14:44:10;;;;;;;2.67;0.45;;;;;;;;;;5051434;28;20465;-68
2022/02/14 14:46:35;;;;;;;1.25;0.57;;;;;;;;;;5051449;28;20028;-68